バミューダ の空港の天気 - METARとTAF

バミューダ国際空港 ( TXKF / BDA ) - バミューダ諸島 Ferry Reach
飛行場実況気象(Metar)
観測時間08/25 15:55 ADT (08/25 18:55 UTC)
風向・風速南南西 7m/s
視程10km以上
天気現象周辺でしゅう雨
全天の4割程度の雲 雲底高度 670m
全天の8割程度の雲 雲底高度 6400m
全天の8割程度の雲 雲底高度 9140m
気温29℃
湿度79%
気圧1017hPa
METARTXKF 251855Z 21013KT 9999 VCSH SCT022TCU BKN210 BKN300 29/25 Q1017 RMK TCU W
過去の天気等 Google飛行場航空写真 Wunderground天気予報

過去48時間のMETAR

飛行場予報(TAF)
発表時間: 8/25 14:33 ADT (8/25 17:33 UTC)
予報対象時間: 25日15時 ADT ~ 26日15時 ADT
風向・風速西南西 5m/s
視程10km以上
天気現象周辺でしゅう雨
全天の4割程度の雲 雲底高度 610m
全天の8割程度の雲 雲底高度 9140m
25日15時 ADT ~ 26日15時 ADT に 確率 40% で一時的に
視程3200m
天気現象しゅう雨
全天の8割程度の積乱雲 雲底高度 550m
25日15時 ADT ~ 25日20時 ADT に 確率 30% で一時的に
風向・風速西北西 5m/s 瞬間風速 10m/s
視程1600m
天気現象雷雨
全天の8割程度の積乱雲 雲底高度 370m
TAF TXKF 251733Z 2518/2618 24009KT 9999 VCSH SCT020 BKN300
PROB40 TEMPO 2518/2618 3200 SHRA BKN018CB
PROB30 TEMPO 2518/2523 29010G20KT 1600 TSRA BKN012CB